Station info - map view · info · telemetry · weather · raw · status · beacons · messages · bulletins · browse · moving · my account
Callsign, ship name or locator: Clear       
It is possible to search using wildcards (*?) after a prefix. Example: OH*
APRS station DC2EH-12 - show graphs
Map loading...
Comment: www.ballon.org
Last status: MT-AIO v1.2
Location: 52°59.10' N 14°22.41' E - locator JO72EX46TJ - show map - static map
2.7 miles Northwest bearing 303° from Chojna, Powiat gryfiński, West Pomeranian Voivodeship, Poland [?]
8.8 miles North bearing 355° from Moryń, Powiat gryfiński, West Pomeranian Voivodeship, Poland
31.5 miles South bearing 194° from Szczecin, Szczecin, West Pomeranian Voivodeship, Poland
51.3 miles Northeast bearing 51° from Berlin, Berlin, Germany
Last position: 2018-09-09 03:06:58 EDT (11d 22h58m ago)
2018-09-09 09:06:58 CEST local time at Chojna, Poland [?]
Altitude: -3 ft
Course: 349°
Device: Byonics: TinyTrak3 (tracker)
Last path: DC2EH-12>APT3A2 via WIDE1-1,WIDE2-1,qAR,SR1WXN (good)
Positions stored: 6642
Other SSIDs: DC2EH-1 DC2EH-11 DC2EH-14 DC2EH-5 DC2EH-6 DC2EH-7 DC2EH-9
Stations near current position of DC2EH-12 - show more
callsign distance last heard - EDT      callsign distance last heard - EDT
SR1NOC3.1 miles 123°2018-09-20 22:08:56 SR1NRC3.2 miles 310°2018-09-21 01:29:45
SQ1OOS-43.2 miles 310°2018-08-29 02:56:33 SR1WXN3.3 miles 127°2018-09-21 01:52:07
SQ6KXW-93.3 miles 121°2018-09-21 02:02:02 SQ1SDQ-93.4 miles 120°2018-09-20 23:55:47
SQ1OOS3.4 miles 332°2018-09-21 02:04:55 SQ1OOS-103.7 miles 143°2018-09-21 01:57:28
SQ1OOS-74.0 miles 323°2018-09-17 12:41:45 SQ1OOS-184.0 miles 324°2018-09-17 02:34:23
SQ1OOS-94.0 miles 323°2018-09-19 12:47:14 SP1KZE-104.1 miles 243°2018-09-19 03:35:20
145.787-C5.6 miles 116°2018-09-21 01:51:53 438.025-B5.8 miles 136°2018-09-21 01:51:57
SCHWEDT5.8 miles 323°2018-09-21 02:04:55 531051426 LA5.8 miles 323°2018-09-19 19:12:02
PELIKAN5.8 miles 323°2018-09-21 02:02:55 SONGLINE5.9 miles 321°2018-09-20 06:02:53
211670680 DE6.0 miles 337°2018-09-08 07:56:53 M0NA6.0 miles 305°2018-08-31 09:56:52
Stations which heard DC2EH-12 directly on radio –
callsign pkts first heard - EDT last heard longest (tx => rx) longest at - EDT
SR3NJE 2 2018-09-09 00:26:28 2018-09-09 00:30:46 JO72EW > JO72PI 56.8 miles 137° 2018-09-09 00:30:46
DB0LMM 1 2018-09-08 14:40:14 2018-09-08 14:40:14 JO61IU > JO61EI 38.0 miles 204° 2018-09-08 14:40:14
DB0GER 1 2018-09-08 15:46:06 2018-09-08 15:46:06 JO61MV > JO60BV 80.4 miles 208° 2018-09-08 15:46:06
SR1NRE 30 2018-09-08 21:42:13 2018-09-09 00:30:44 JO62VM > JO73GK 73.3 miles 26° 2018-09-08 21:42:13
DM1RG-10 1 2018-09-08 17:55:45 2018-09-08 17:55:45 JO62QA > JO62NC 10.9 miles 302° 2018-09-08 17:55:45
DB0LPZ 14 2018-09-08 12:46:22 2018-09-08 20:07:53 JO62SF > JO61FI 77.1 miles 218° 2018-09-08 20:07:53
DO7AD 1 2018-09-08 13:14:49 2018-09-08 13:14:49 JO61GS > JO51NR 58.9 miles 269° 2018-09-08 13:14:49
DB0WOF-10 4 2018-09-08 11:35:26 2018-09-08 13:04:22 JO61GR > JO61DQ 12.5 miles 246° 2018-09-08 13:04:22
SR1NRC 4 2018-09-08 23:32:27 2018-09-09 00:39:01 JO72BT > JO73DA 16.6 miles 27° 2018-09-08 23:32:27
SR1WXN 52 2018-09-09 00:45:00 2018-09-09 03:06:58 JO72EX > JO72FW 3.3 miles 127° 2018-09-09 03:06:58
DB0ZWI-10 2 2018-09-08 12:04:30 2018-09-08 13:00:23 JO61GR > JO60FR 68.6 miles 182° 2018-09-08 13:00:23
DJ9ZZZ-10 1 2018-09-08 18:03:46 2018-09-08 18:03:46 JO62QA > JO61OI 46.1 miles 188° 2018-09-08 18:03:46
SR3NZG 39 2018-09-08 17:05:57 2018-09-09 00:18:29 JO61PX > JO71SW 94.4 miles 91° 2018-09-08 17:05:57
DG1JLA-3 5 2018-09-08 14:47:14 2018-09-08 16:37:57 JO61PX > JO60LV 74.4 miles 189° 2018-09-08 16:37:57
DO4DR-10 9 2018-09-08 11:57:15 2018-09-08 16:16:54 JO61OX > JO60GT 82.8 miles 199° 2018-09-08 16:16:54
DO1AA-10 110 2018-09-08 11:50:19 2018-09-08 17:25:50 JO61QX > JO61FV 38.6 miles 260° 2018-09-08 17:25:50
DL2RXE-10 7 2018-09-08 12:54:23 2018-09-08 21:00:00 JO62UJ > JO62MA 39.1 miles 228° 2018-09-08 21:00:00
DL1ATW-10 22 2018-09-08 12:26:26 2018-09-08 16:12:01 JO61FQ > JO62CR 73.9 miles 352° 2018-09-08 12:26:26
DM5RC 2 2018-09-08 18:01:47 2018-09-08 21:20:03 JO62UK > JO71ES 53.7 miles 148° 2018-09-08 21:20:03
DB0PDM 4 2018-09-08 16:38:57 2018-09-08 23:59:18 JO72CU > JO62MI 60.1 miles 235° 2018-09-08 23:59:18
DC7JZB-10 11 2018-09-08 16:59:53 2018-09-08 21:44:57 JO61PX > JO62QJ 30.5 miles 8° 2018-09-08 16:59:53
DB0SLF 2 2018-09-08 12:18:27 2018-09-08 16:35:57 JO61OX > JO50QP 123.9 miles 222° 2018-09-08 16:35:57
DO7DOC-10 1 2018-09-08 16:28:34 2018-09-08 16:28:34 JO61OX > JO60IV 77.3 miles 196° 2018-09-08 16:28:34
DB0BBB 168 2018-09-08 15:55:15 2018-09-09 00:43:00 JO61MW > JO62SQ 56.1 miles 23° 2018-09-08 15:55:15
SR1SZD 3 2018-09-08 23:14:31 2018-09-09 00:37:01 JO72AS > JO73GK 51.1 miles 22° 2018-09-08 23:14:31
DB0FGB 10 2018-09-08 12:16:30 2018-09-08 15:42:56 JO61LV > JO50WB 136.9 miles 201° 2018-09-08 15:42:56

Only position packets which were originated by the station are shown here. The range statistics show some extra long hops, because some digipeaters do not correctly add themselves to the digipeater path. Please check the raw packets.
About this site
This page shows real-time information collected from the Automatic Position Reporting System Internet network (APRS-IS). APRS is used by amateur (ham) radio operators to transmit real-time position information, weather data, telemetry and messages over the radio. A vehicle equipped with a GPS receiver, a VHF transmitter or HF transceiver and a small computer device called a tracker transmits it's location, speed and course in a small data packet, which is then received by a nearby iGate receiving site which forwards the packet on the Internet. Systems connected to the Internet can send information on the APRS-IS without a radio transmitter, or collect and display information transmitted anywhere in the world.
FAQ · Blog · Discussion group · Linking to aprs.fi · AIS sites · Service status · Database statistics · Advertising on aprs.fi · Technical details · API · Change log · Planned changes · Credits and thanks · Terms Of Service · iPhone/iPad APRS